Date,TemperatureHighF,TemperatureAvgF,TemperatureLowF,DewpointHighF,DewpointAvgF,DewpointLowF,HumidityHigh,HumidityAvg,HumidityLow,PressureMaxIn,PressureMinIn,WindSpeedMaxMPH,WindSpeedAvgMPH,GustSpeedMaxMPH,PrecipitationSumIn
2013-6-1,92,81,69,71,67,64,85,63,47,30.01,29.86,5,2,12,0.00
2013-6-2,83,75,69,73,67,63,95,78,65,29.86,29.80,5,2,9,0.77
2013-6-3,79,70,62,70,63,54,98,80,55,29.97,29.83,2,1,6,0.49
2013-6-4,77,63,47,55,50,43,91,64,37,30.13,29.97,3,1,5,0.00
2013-6-5,79,66,50,59,55,48,97,71,43,30.17,30.02,5,1,12,0.00
2013-6-6,69,65,63,64,58,49,97,80,57,30.05,29.85,4,2,8,0.64
2013-6-7,69,66,63,68,64,62,97,96,91,29.85,29.65,2,0,6,0.27
2013-6-8,79,69,61,64,61,58,97,79,55,30.10,29.73,3,1,5,0.00
2013-6-9,81,70,58,68,63,56,97,80,58,30.19,30.08,4,1,8,0.00
2013-6-10,81,71,68,74,69,64,97,92,76,30.10,29.76,5,1,8,1.12
2013-6-11,80,72,64,69,66,64,98,84,65,29.84,29.77,6,2,10,0.02
2013-6-12,88,76,64,72,67,62,95,75,51,29.86,29.76,3,1,6,0.00
2013-6-13,81,72,67,70,66,56,96,83,66,29.78,29.47,6,2,14,0.54
2013-6-14,80,69,60,60,56,54,88,66,43,29.98,29.62,3,1,8,0.00
2013-6-15,82,68,54,62,56,51,97,69,34,30.09,29.98,3,1,6,0.00
2013-6-16,80,70,59,70,62,56,92,79,63,30.03,29.87,6,1,11,0.04
2013-6-17,87,75,65,71,66,62,94,76,53,29.95,29.86,4,1,7,0.00
2013-6-18,78,71,64,71,67,63,97,89,77,29.90,29.79,3,0,5,0.11
2013-6-19,80,68,59,64,60,55,98,78,43,30.14,29.90,2,0,5,0.69
2013-6-20,80,69,56,67,61,55,98,79,56,30.25,30.14,5,2,11,0.00
2013-6-21,84,72,56,64,58,52,92,63,47,30.28,30.20,5,2,7,0.00
2013-6-22,88,74,58,70,64,53,97,72,50,30.24,30.09,4,1,9,0.00
2013-6-23,89,77,64,73,68,63,97,75,45,30.17,30.04,3,1,7,0.00
2013-6-24,90,78,69,73,69,65,94,76,51,30.12,30.01,6,1,11,0.00
2013-6-25,93,79,67,74,69,63,97,74,46,30.03,29.86,5,2,8,0.00
2013-6-26,90,75,65,74,68,63,95,79,56,29.93,29.80,4,1,6,0.00
2013-6-27,87,74,65,75,69,64,98,86,65,29.82,29.60,5,1,8,0.37
2013-6-28,87,75,67,72,67,63,94,78,54,29.61,29.45,6,1,9,0.00
2013-6-29,88,74,64,68,64,62,96,74,44,29.70,29.51,7,1,19,0.99
2013-6-30,89,74,64,74,69,63,98,86,60,29.83,29.69,4,1,8,0.02